createdAt,value
2022-08-03T00:01:52.228Z,100545.53
2022-08-03T00:04:55.492Z,100548.69
2022-08-03T00:07:58.535Z,100545.66
2022-08-03T00:11:07.094Z,100548.47
2022-08-03T00:14:13.183Z,100552.88
2022-08-03T00:17:16.487Z,100545.44
2022-08-03T00:20:19.469Z,100550.62
2022-08-03T00:23:24.920Z,100548.94
2022-08-03T00:26:29.323Z,100549.06
2022-08-03T00:29:59.872Z,100555.81
2022-08-03T00:33:17.542Z,100552.94
2022-08-03T00:36:26.383Z,100553.75
2022-08-03T00:39:29.455Z,100560.88
2022-08-03T00:42:35.489Z,100561.28
2022-08-03T00:45:42.202Z,100564.44
2022-08-03T00:48:47.515Z,100565.03
2022-08-03T00:51:54.005Z,100559.34
2022-08-03T00:55:02.797Z,100569.59
2022-08-03T00:58:08.689Z,100571.88
2022-08-03T01:01:12.784Z,100578.75
2022-08-03T01:04:18.372Z,100576.56
2022-08-03T01:07:52.829Z,100575.94
2022-08-03T01:11:19.208Z,100579.31
2022-08-03T01:14:45.283Z,100577.66
2022-08-03T01:17:56.134Z,100582.34
2022-08-03T01:21:04.188Z,100581.06
2022-08-03T01:24:19.602Z,100582.72
2022-08-03T01:27:33.482Z,100580.75
2022-08-03T01:30:38.313Z,100577.91
2022-08-03T01:33:44.516Z,100583.75
2022-08-03T01:36:54.003Z,100579.16
2022-08-03T01:40:04.796Z,100580.41
2022-08-03T01:44:01.266Z,100581.59
2022-08-03T01:46:59.598Z,100581.41
2022-08-03T01:50:04.815Z,100581.00
2022-08-03T01:53:52.959Z,100567.53
2022-08-03T01:57:01.723Z,100573.47
2022-08-03T02:00:07.462Z,100573.47
2022-08-03T02:03:17.692Z,100572.59
2022-08-03T02:07:00.646Z,100572.59
2022-08-03T02:09:51.718Z,100571.41
2022-08-03T02:12:55.712Z,100572.31
2022-08-03T02:16:02.956Z,100566.53
2022-08-03T02:19:10.927Z,100566.06
2022-08-03T02:22:16.057Z,100561.88
2022-08-03T02:25:54.856Z,100571.50
2022-08-03T02:29:18.598Z,100568.03
2022-08-03T02:32:30.854Z,100568.94
2022-08-03T02:35:35.769Z,100567.94
2022-08-03T02:38:51.635Z,100569.50
2022-08-03T02:42:03.127Z,100568.28
2022-08-03T02:45:12.540Z,100572.37
2022-08-03T02:48:20.300Z,100574.62
2022-08-03T02:51:26.702Z,100573.34
2022-08-03T02:54:34.356Z,100577.41
2022-08-03T02:57:39.517Z,100579.56
2022-08-03T03:00:48.042Z,100577.50
2022-08-03T03:03:55.696Z,100577.59
2022-08-03T03:06:59.731Z,100579.78
2022-08-03T03:10:08.493Z,100577.09
2022-08-03T03:13:14.020Z,100573.72
2022-08-03T03:16:19.792Z,100587.91
2022-08-03T03:19:23.341Z,100579.16
2022-08-03T03:22:32.791Z,100579.94
2022-08-03T03:25:38.404Z,100579.53
2022-08-03T03:28:42.339Z,100576.03
2022-08-03T03:31:46.348Z,100579.53
2022-08-03T03:34:50.392Z,100580.91
2022-08-03T03:37:54.409Z,100583.88
2022-08-03T03:41:00.079Z,100586.84
2022-08-03T03:44:10.771Z,100591.12
2022-08-03T03:47:32.814Z,100584.09
2022-08-03T03:50:46.079Z,100588.16
2022-08-03T03:53:57.966Z,100586.56
2022-08-03T03:57:01.046Z,100588.63
2022-08-03T04:00:05.972Z,100591.03
2022-08-03T04:03:11.322Z,100589.56
2022-08-03T04:06:34.038Z,100585.72
2022-08-03T04:09:59.175Z,100589.63
2022-08-03T04:13:19.530Z,100594.09
2022-08-03T04:16:26.540Z,100595.56
2022-08-03T04:19:37.934Z,100602.94
2022-08-03T04:22:44.292Z,100612.12
2022-08-03T04:25:51.821Z,100611.13
2022-08-03T04:28:56.203Z,100612.03
2022-08-03T04:32:20.496Z,100616.63
2022-08-03T04:36:07.197Z,100616.59
2022-08-03T04:39:27.772Z,100621.66
2022-08-03T04:42:34.069Z,100623.03
2022-08-03T04:45:38.790Z,100624.91
2022-08-03T04:48:46.789Z,100623.81
2022-08-03T04:51:58.912Z,100629.12
2022-08-03T04:55:03.754Z,100633.66
2022-08-03T04:58:07.643Z,100636.28
2022-08-03T05:01:16.371Z,100632.25
2022-08-03T05:04:20.611Z,100638.84
2022-08-03T05:07:26.262Z,100647.66
2022-08-03T05:10:41.230Z,100652.50
2022-08-03T05:13:45.586Z,100649.41
2022-08-03T05:16:48.734Z,100643.16
2022-08-03T05:19:54.315Z,100652.38
2022-08-03T05:23:01.877Z,100648.81
2022-08-03T05:26:08.542Z,100652.16
2022-08-03T05:29:11.777Z,100657.22
2022-08-03T05:32:14.737Z,100649.34
2022-08-03T05:35:56.811Z,100660.91
2022-08-03T05:38:43.511Z,100659.50
2022-08-03T05:41:50.294Z,100665.38
2022-08-03T05:44:54.751Z,100666.66
2022-08-03T05:48:02.541Z,100673.16
2022-08-03T05:51:07.574Z,100670.28
2022-08-03T05:54:12.859Z,100671.53
2022-08-03T05:57:16.092Z,100670.38
2022-08-03T06:00:19.679Z,100677.47
2022-08-03T06:03:28.133Z,100676.53
2022-08-03T06:06:32.438Z,100683.78
2022-08-03T06:10:37.577Z,100683.69
2022-08-03T06:13:00.608Z,100695.72
2022-08-03T06:16:03.928Z,100686.94
2022-08-03T06:19:06.572Z,100689.56
2022-08-03T06:22:12.758Z,100696.47
2022-08-03T06:25:17.437Z,100688.19
2022-08-03T06:28:53.265Z,100689.81
2022-08-03T06:31:48.245Z,100694.41
2022-08-03T06:34:51.455Z,100695.34
2022-08-03T06:37:55.499Z,100699.91
2022-08-03T06:41:04.511Z,100701.41
2022-08-03T06:44:10.290Z,100703.38
2022-08-03T06:47:16.475Z,100704.84
2022-08-03T06:50:41.794Z,100700.81
2022-08-03T06:53:45.470Z,100703.31
2022-08-03T06:56:53.607Z,100707.19
2022-08-03T07:00:09.608Z,100709.25
2022-08-03T07:03:17.154Z,100705.41
2022-08-03T07:06:32.326Z,100711.97
2022-08-03T07:09:34.784Z,100707.87
2022-08-03T07:12:38.799Z,100713.50
2022-08-03T07:15:59.270Z,100701.47
2022-08-03T07:19:06.131Z,100701.47
2022-08-03T07:22:12.001Z,100704.38
2022-08-03T07:25:15.400Z,100703.31
2022-08-03T07:28:23.408Z,100707.00
2022-08-03T07:31:26.537Z,100707.91
2022-08-03T07:34:29.385Z,100705.91
2022-08-03T07:37:33.797Z,100702.81
2022-08-03T07:40:43.217Z,100700.31
2022-08-03T07:43:51.625Z,100703.53
2022-08-03T07:46:54.808Z,100705.34
2022-08-03T07:49:59.728Z,100700.19
2022-08-03T07:53:02.254Z,100700.12
2022-08-03T07:56:11.386Z,100700.12
2022-08-03T07:59:20.593Z,100701.75
2022-08-03T08:02:23.393Z,100705.44
2022-08-03T08:05:27.445Z,100702.25
2022-08-03T08:08:30.813Z,100699.62
2022-08-03T08:11:40.135Z,100704.75
2022-08-03T08:14:45.935Z,100709.78
2022-08-03T08:17:56.717Z,100698.25
2022-08-03T08:21:01.564Z,100693.59
2022-08-03T08:24:10.747Z,100702.81
2022-08-03T08:27:21.321Z,100707.53
2022-08-03T08:30:29.599Z,100698.91
2022-08-03T08:34:02.646Z,100691.81
2022-08-03T08:37:07.003Z,100699.44
2022-08-03T08:40:13.436Z,100694.41
2022-08-03T08:43:16.392Z,100691.31
2022-08-03T08:46:23.079Z,100693.66
2022-08-03T08:49:58.203Z,100707.00
2022-08-03T08:53:09.633Z,100699.56
2022-08-03T08:56:17.425Z,100700.16
2022-08-03T08:59:21.143Z,100693.38
2022-08-03T09:02:25.239Z,100688.25
2022-08-03T09:05:54.853Z,100689.44
2022-08-03T09:08:54.867Z,100688.03
2022-08-03T09:12:20.848Z,100687.19
2022-08-03T09:15:38.170Z,100684.63
2022-08-03T09:18:43.317Z,100675.00
2022-08-03T09:21:46.140Z,100675.56
2022-08-03T09:28:59.823Z,100687.19
2022-08-03T09:32:05.769Z,100680.41
2022-08-03T09:35:11.419Z,100672.91
2022-08-03T09:38:17.011Z,100672.00
2022-08-03T09:41:19.884Z,100674.69
2022-08-03T09:44:43.435Z,100672.22
2022-08-03T09:47:46.204Z,100666.81
2022-08-03T09:50:58.816Z,100658.84
2022-08-03T09:54:31.128Z,100665.31
2022-08-03T09:57:40.862Z,100666.16
2022-08-03T10:01:00.998Z,100661.69
2022-08-03T10:04:11.651Z,100662.75
2022-08-03T10:07:14.136Z,100652.69
2022-08-03T10:10:30.549Z,100646.81
2022-08-03T10:13:36.520Z,100647.53
2022-08-03T10:16:42.691Z,100645.84
2022-08-03T10:19:45.897Z,100641.63
2022-08-03T10:22:49.729Z,100637.97
2022-08-03T10:25:58.187Z,100636.56
2022-08-03T10:29:04.673Z,100641.00
2022-08-03T10:32:39.314Z,100628.34
2022-08-03T10:35:43.450Z,100628.25
2022-08-03T10:38:53.321Z,100633.28
2022-08-03T10:42:02.570Z,100625.56
2022-08-03T10:45:08.903Z,100625.00
2022-08-03T10:48:18.184Z,100623.78
2022-08-03T10:51:21.349Z,100616.66
2022-08-03T10:55:07.497Z,100612.28
2022-08-03T10:58:11.399Z,100610.94
2022-08-03T11:01:14.866Z,100609.16
2022-08-03T11:04:24.376Z,100595.50
2022-08-03T11:07:27.562Z,100603.34
2022-08-03T11:10:31.880Z,100600.50
2022-08-03T11:13:37.597Z,100597.66
2022-08-03T11:16:47.058Z,100595.38
2022-08-03T11:19:56.668Z,100591.78
2022-08-03T11:23:03.119Z,100583.03
2022-08-03T11:26:29.978Z,100577.47
2022-08-03T11:29:32.551Z,100577.25
2022-08-03T11:32:46.560Z,100573.59
2022-08-03T11:36:00.550Z,100565.47
2022-08-03T11:39:16.970Z,100562.19
2022-08-03T11:42:26.406Z,100565.72
2022-08-03T11:45:29.876Z,100569.28
2022-08-03T11:48:43.251Z,100560.13
2022-08-03T11:51:46.165Z,100551.00
2022-08-03T11:54:56.665Z,100553.22
2022-08-03T11:59:13.239Z,100548.13
2022-08-03T12:01:26.623Z,100551.06
2022-08-03T12:04:29.461Z,100552.63
2022-08-03T12:08:02.345Z,100551.44
2022-08-03T12:11:04.573Z,100540.50
2022-08-03T12:14:48.686Z,100543.22
2022-08-03T12:17:34.972Z,100542.75
2022-08-03T12:20:40.187Z,100545.69
2022-08-03T12:23:43.405Z,100539.16
2022-08-03T12:26:58.423Z,100538.44
2022-08-03T12:30:04.711Z,100539.09
2022-08-03T12:33:16.340Z,100530.19
2022-08-03T12:36:23.020Z,100520.59
2022-08-03T12:39:30.992Z,100525.81
2022-08-03T12:42:36.267Z,100520.94
2022-08-03T12:45:38.667Z,100514.06
2022-08-03T12:49:03.593Z,100515.94
2022-08-03T12:52:07.792Z,100515.25
2022-08-03T12:55:20.443Z,100516.50
2022-08-03T12:58:34.024Z,100512.94
2022-08-03T13:01:37.663Z,100510.94
2022-08-03T13:04:42.468Z,100510.53
2022-08-03T13:07:46.415Z,100500.97
2022-08-03T13:10:49.681Z,100503.19
2022-08-03T13:13:55.263Z,100497.72
2022-08-03T13:16:57.950Z,100497.00
2022-08-03T13:20:01.095Z,100493.75
2022-08-03T13:23:12.462Z,100482.78
2022-08-03T13:26:25.050Z,100474.03
2022-08-03T13:29:27.969Z,100472.34
2022-08-03T13:32:31.689Z,100469.38
2022-08-03T13:35:34.432Z,100475.19
2022-08-03T13:38:37.733Z,100473.38
2022-08-03T13:41:40.890Z,100472.22
2022-08-03T13:44:46.950Z,100469.50
2022-08-03T13:47:49.657Z,100473.09
2022-08-03T13:50:54.955Z,100470.09
2022-08-03T13:54:00.386Z,100466.34
2022-08-03T13:58:04.668Z,100467.84
2022-08-03T14:00:30.607Z,100460.16
2022-08-03T14:03:34.105Z,100458.69
2022-08-03T14:06:36.746Z,100451.69
2022-08-03T14:09:45.929Z,100450.56
2022-08-03T14:12:48.693Z,100446.59
2022-08-03T14:15:52.002Z,100447.00
2022-08-03T14:18:57.651Z,100450.91
2022-08-03T14:22:06.525Z,100442.69
2022-08-03T14:25:14.087Z,100445.88
2022-08-03T14:28:24.485Z,100439.28
2022-08-03T14:32:11.055Z,100438.06
2022-08-03T14:34:51.908Z,100436.13
2022-08-03T14:37:54.723Z,100430.66
2022-08-03T14:41:06.303Z,100424.34
2022-08-03T14:44:19.311Z,100427.44
2022-08-03T14:47:24.325Z,100423.87
2022-08-03T14:50:41.069Z,100421.97
2022-08-03T14:53:52.216Z,100414.16
2022-08-03T14:56:57.074Z,100412.97
2022-08-03T15:00:03.757Z,100409.06
2022-08-03T15:03:06.687Z,100403.59
2022-08-03T15:06:09.696Z,100404.34
2022-08-03T15:09:21.553Z,100401.62
2022-08-03T15:12:26.468Z,100409.38
2022-08-03T15:15:29.932Z,100408.59
2022-08-03T15:18:32.781Z,100406.63
2022-08-03T15:21:47.000Z,100406.97
2022-08-03T15:24:56.348Z,100397.50
2022-08-03T15:28:03.425Z,100401.38
2022-08-03T15:31:08.223Z,100393.69
2022-08-03T15:34:12.100Z,100397.00
2022-08-03T15:37:16.662Z,100395.97
2022-08-03T15:40:19.544Z,100388.75
2022-08-03T15:43:26.102Z,100386.44
2022-08-03T15:46:29.739Z,100393.22
2022-08-03T15:49:33.244Z,100391.91
2022-08-03T15:52:37.009Z,100388.25
2022-08-03T15:55:42.097Z,100390.00
2022-08-03T15:59:07.603Z,100388.50
2022-08-03T16:02:09.195Z,100389.84
2022-08-03T16:05:36.752Z,100394.44
2022-08-03T16:08:52.006Z,100382.94
2022-08-03T16:11:55.854Z,100380.28
2022-08-03T16:14:59.529Z,100385.84
2022-08-03T16:18:02.752Z,100381.34
2022-08-03T16:21:07.953Z,100382.38
2022-08-03T16:24:17.361Z,100383.94
2022-08-03T16:27:56.505Z,100380.66
2022-08-03T16:30:47.472Z,100373.28
2022-08-03T16:33:53.415Z,100376.66
2022-08-03T16:36:57.052Z,100375.63
2022-08-03T16:40:02.670Z,100374.91
2022-08-03T16:43:17.744Z,100371.88
2022-08-03T16:46:21.194Z,100370.34
2022-08-03T16:49:54.657Z,100373.88
2022-08-03T16:52:52.169Z,100378.22
2022-08-03T16:56:00.114Z,100372.37
2022-08-03T16:59:04.216Z,100377.09
2022-08-03T17:02:10.554Z,100382.97
2022-08-03T17:05:22.065Z,100380.19
2022-08-03T17:08:27.520Z,100385.22
2022-08-03T17:11:52.009Z,100385.97
2022-08-03T17:14:55.081Z,100390.63
2022-08-03T17:18:17.761Z,100392.97
2022-08-03T17:21:30.943Z,100391.38
2022-08-03T17:24:41.338Z,100390.13
2022-08-03T17:28:48.700Z,100396.69
2022-08-03T17:31:31.633Z,100392.28
2022-08-03T17:34:37.716Z,100399.59
2022-08-03T17:37:58.145Z,100395.56
2022-08-03T17:41:11.002Z,100405.53
2022-08-03T17:44:30.174Z,100404.53
2022-08-03T17:47:42.633Z,100398.16
2022-08-03T17:50:53.124Z,100407.78
2022-08-03T17:54:18.185Z,100411.94
2022-08-03T17:58:02.819Z,100409.41
2022-08-03T18:01:56.957Z,100409.22
2022-08-03T18:04:55.191Z,100404.97
2022-08-03T18:08:05.854Z,100407.91
2022-08-03T18:11:21.816Z,100416.97
2022-08-03T18:14:57.133Z,100416.56
2022-08-03T18:18:10.266Z,100414.28
2022-08-03T18:21:16.934Z,100426.66
2022-08-03T18:24:23.850Z,100434.41
2022-08-03T18:27:42.827Z,100435.16
2022-08-03T18:30:54.399Z,100433.66
2022-08-03T18:34:17.504Z,100432.03
2022-08-03T18:37:27.344Z,100432.44
2022-08-03T18:40:36.146Z,100440.63
2022-08-03T18:44:07.070Z,100444.97
2022-08-03T18:47:18.357Z,100448.44
2022-08-03T18:50:38.982Z,100451.69
2022-08-03T18:54:03.365Z,100462.19
2022-08-03T18:57:15.616Z,100459.66
2022-08-03T19:04:15.280Z,100461.88
2022-08-03T19:07:46.305Z,100460.78
2022-08-03T19:11:15.893Z,100467.16
2022-08-03T19:14:28.730Z,100470.00
2022-08-03T19:17:38.962Z,100465.19
2022-08-03T19:20:46.777Z,100468.81
2022-08-03T19:23:51.932Z,100473.50
2022-08-03T19:27:01.453Z,100477.72
2022-08-03T19:30:40.655Z,100477.84
2022-08-03T19:34:19.437Z,100480.03
2022-08-03T19:37:38.344Z,100477.75
2022-08-03T19:40:52.393Z,100480.91
2022-08-03T19:44:19.830Z,100480.66
2022-08-03T19:47:38.217Z,100479.19
2022-08-03T19:50:44.688Z,100488.09
2022-08-03T19:53:50.228Z,100485.38
2022-08-03T19:56:56.427Z,100493.50
2022-08-03T20:00:03.628Z,100489.53
2022-08-03T20:03:21.872Z,100492.56
2022-08-03T20:06:32.070Z,100491.66
2022-08-03T20:09:35.982Z,100497.75
2022-08-03T20:12:55.137Z,100497.63
2022-08-03T20:16:02.561Z,100498.66
2022-08-03T20:19:20.861Z,100499.50
2022-08-03T20:22:33.586Z,100497.00
2022-08-03T20:25:48.618Z,100501.84
2022-08-03T20:29:00.651Z,100497.78
2022-08-03T20:32:32.002Z,100501.28
2022-08-03T20:35:35.857Z,100495.94
2022-08-03T20:38:43.788Z,100500.59
2022-08-03T20:41:57.304Z,100503.38
2022-08-03T20:45:13.010Z,100504.69
2022-08-03T20:48:18.685Z,100506.03
2022-08-03T20:51:50.578Z,100505.44
2022-08-03T20:54:51.843Z,100502.16
2022-08-03T20:57:57.554Z,100502.34
2022-08-03T21:01:05.259Z,100502.53
2022-08-03T21:08:04.222Z,100491.16
2022-08-03T21:10:56.746Z,100492.25
2022-08-03T21:13:09.523Z,100464.00
2022-08-03T21:14:02.910Z,100496.88
2022-08-03T21:17:19.458Z,100507.16
2022-08-03T21:20:32.628Z,100512.88
2022-08-03T21:23:48.712Z,100507.47
2022-08-03T21:27:00.772Z,100507.22
2022-08-03T21:30:07.296Z,100509.97
2022-08-03T21:33:10.528Z,100515.09
2022-08-03T21:36:16.979Z,100512.28
2022-08-03T21:39:21.145Z,100520.56
2022-08-03T21:42:24.535Z,100527.12
2022-08-03T21:45:28.591Z,100524.13
2022-08-03T21:48:40.195Z,100525.09
2022-08-03T21:51:42.861Z,100533.38
2022-08-03T21:54:50.632Z,100528.00
2022-08-03T21:58:05.032Z,100535.00
2022-08-03T22:01:24.114Z,100531.69
2022-08-03T22:04:54.905Z,100539.63
2022-08-03T22:07:47.684Z,100539.00
2022-08-03T22:10:55.410Z,100537.09
2022-08-03T22:14:00.748Z,100546.00
2022-08-03T22:17:07.135Z,100540.44
2022-08-03T22:20:15.062Z,100542.53
2022-08-03T22:23:33.786Z,100537.31
2022-08-03T22:27:06.315Z,100540.62
2022-08-03T22:30:19.355Z,100546.19
2022-08-03T22:33:27.409Z,100552.37
2022-08-03T22:36:31.342Z,100540.66
2022-08-03T22:39:35.483Z,100544.47
2022-08-03T22:42:46.530Z,100552.03
2022-08-03T22:46:10.447Z,100548.91
2022-08-03T22:49:13.564Z,100547.31
2022-08-03T22:52:27.298Z,100552.41
2022-08-03T22:55:31.438Z,100553.66
2022-08-03T22:58:47.725Z,100559.66
2022-08-03T23:01:55.654Z,100552.22
2022-08-03T23:05:04.179Z,100555.06
2022-08-03T23:08:09.148Z,100559.19
2022-08-03T23:11:12.765Z,100556.81
2022-08-03T23:14:22.355Z,100565.78
2022-08-03T23:17:28.040Z,100573.88
2022-08-03T23:20:31.594Z,100569.88
2022-08-03T23:23:43.845Z,100570.38
2022-08-03T23:26:51.687Z,100559.50
2022-08-03T23:29:58.434Z,100557.59
2022-08-03T23:33:06.488Z,100566.31
2022-08-03T23:36:30.642Z,100572.13
2022-08-03T23:39:37.141Z,100567.69
2022-08-03T23:42:42.675Z,100574.31
2022-08-03T23:45:48.344Z,100571.16
2022-08-03T23:48:56.513Z,100573.72
2022-08-03T23:52:24.431Z,100562.59
2022-08-03T23:56:16.370Z,100566.41
2022-08-03T23:59:27.888Z,100567.19
